< Typhoon 197126 1971 Season Typhoon 197128 >
Typhoon 197127 (AGNES)
General InformationTrack Information on Google Maps || Disaster Info.ResourceGoogle EarthGE AnimationAtom FeedGeoJSON
Detalied Best Track (Time Zone = UTC)
Year Month Day Hour Lat. Long. Pressure (hPa) Wind (kt) Class Image Chart
1971 9 10 06 20.3 128.5 1004 0 2 -- Chart
1971 9 10 12 20.5 129.2 1004 0 2 -- Chart
1971 9 10 18 21.0 130.0 1004 0 2 -- Chart
1971 9 11 00 21.6 129.8 1004 0 2 -- Chart
1971 9 11 06 21.3 129.7 1000 0 2 -- Chart
1971 9 11 12 21.4 130.4 1000 0 2 -- Chart
1971 9 11 18 21.4 130.8 1000 0 2 -- Chart
1971 9 12 00 21.4 131.4 1000 0 2 -- Chart
1971 9 12 06 21.0 131.7 998 0 2 -- Chart
1971 9 12 12 20.7 131.8 998 0 2 -- Chart
1971 9 12 18 20.3 131.7 1000 0 2 -- Chart
1971 9 13 00 20.0 131.5 1000 0 2 -- Chart
1971 9 13 06 19.7 131.3 1000 0 2 -- Chart
1971 9 13 12 19.6 130.7 1000 0 2 -- Chart
1971 9 13 18 19.5 130.3 1000 0 2 -- Chart
1971 9 14 00 19.4 129.6 1000 0 2 -- Chart
1971 9 14 06 19.2 129.0 1000 0 2 -- Chart
1971 9 14 12 19.0 128.3 998 0 2 -- Chart
1971 9 14 18 18.7 127.7 996 0 2 -- Chart
1971 9 15 00 18.6 127.0 996 0 2 -- Chart
1971 9 15 06 18.6 126.5 996 0 2 -- Chart
1971 9 15 12 18.8 126.2 996 0 2 -- Chart
1971 9 15 18 19.3 125.8 996 0 2 -- Chart
1971 9 16 00 19.5 125.8 992 0 2 -- Chart
1971 9 16 06 19.8 125.9 992 0 2 -- Chart
1971 9 16 12 20.1 125.9 990 0 2 -- Chart
1971 9 16 18 20.4 125.7 990 0 9 -- Chart
1971 9 17 00 21.0 125.4 985 0 9 -- Chart
1971 9 17 06 21.5 125.0 980 0 9 -- Chart
1971 9 17 12 22.5 124.5 980 0 9 -- Chart
1971 9 17 18 22.8 123.8 980 0 9 -- Chart
1971 9 18 00 23.0 123.3 980 0 9 -- Chart
1971 9 18 06 23.6 122.7 975 0 9 -- Chart
1971 9 18 12 23.5 121.4 975 0 9 -- Chart
1971 9 18 18 24.0 121.0 985 0 9 -- Chart
1971 9 19 00 24.5 120.5 990 0 9 -- Chart
1971 9 19 06 24.8 119.5 995 0 9 -- Chart
1971 9 19 12 25.0 118.5 1000 0 2 -- Chart
Japan Meteorological Agency Best Track Data | Correction Date : 1989-06-01
< Typhoon 197126 1971 Season Typhoon 197128 >

Help